createdAt,value
2023-05-24T00:00:18.633Z,64.67
2023-05-24T00:02:46.532Z,64.78
2023-05-24T00:05:16.716Z,64.29
2023-05-24T00:07:46.214Z,63.63
2023-05-24T00:10:14.207Z,63.71
2023-05-24T00:12:42.312Z,64.03
2023-05-24T00:15:10.724Z,64.88
2023-05-24T00:17:41.194Z,64.21
2023-05-24T00:20:12.027Z,63.92
2023-05-24T00:22:40.384Z,63.58
2023-05-24T00:25:10.640Z,64.22
2023-05-24T00:27:39.067Z,63.80
2023-05-24T00:30:08.486Z,64.15
2023-05-24T00:32:36.667Z,64.50
2023-05-24T00:35:04.925Z,64.57
2023-05-24T00:37:32.693Z,64.01
2023-05-24T00:40:00.398Z,63.33
2023-05-24T00:42:29.527Z,63.15
2023-05-24T00:44:57.272Z,64.45
2023-05-24T00:47:25.458Z,63.68
2023-05-24T00:49:53.574Z,64.87
2023-05-24T00:52:22.172Z,64.52
2023-05-24T00:54:50.130Z,63.80
2023-05-24T00:57:18.912Z,64.40
2023-05-24T00:59:48.418Z,64.52
2023-05-24T01:02:17.106Z,64.11
2023-05-24T01:04:45.061Z,64.22
2023-05-24T01:07:22.760Z,64.40
2023-05-24T01:10:05.747Z,64.57
2023-05-24T01:12:43.955Z,64.75
2023-05-24T01:15:23.406Z,64.57
2023-05-24T01:18:01.686Z,64.77
2023-05-24T01:20:33.478Z,64.71
2023-05-24T01:23:31.125Z,64.58
2023-05-24T01:26:14.627Z,65.47
2023-05-24T01:28:44.462Z,65.25
2023-05-24T01:31:13.786Z,65.19
2023-05-24T01:33:42.949Z,65.32
2023-05-24T01:36:11.060Z,65.66
2023-05-24T01:38:40.260Z,65.69
2023-05-24T01:41:22.560Z,65.57
2023-05-24T01:43:57.377Z,65.43
2023-05-24T01:46:36.367Z,65.27
2023-05-24T01:49:12.338Z,65.36
2023-05-24T01:51:45.060Z,65.83
2023-05-24T01:54:15.022Z,65.15
2023-05-24T01:56:45.268Z,65.74
2023-05-24T01:59:16.084Z,65.25
2023-05-24T02:01:44.159Z,64.91
2023-05-24T02:04:12.479Z,65.43
2023-05-24T02:06:40.247Z,65.46
2023-05-24T02:09:08.033Z,64.53
2023-05-24T02:11:35.815Z,64.54
2023-05-24T02:14:03.526Z,65.06
2023-05-24T02:16:33.282Z,64.33
2023-05-24T02:19:01.169Z,64.80
2023-05-24T02:21:29.188Z,65.03
2023-05-24T02:23:57.023Z,65.85
2023-05-24T02:26:24.767Z,66.32
2023-05-24T02:28:52.596Z,65.26
2023-05-24T02:31:21.613Z,65.57
2023-05-24T02:33:51.277Z,65.25
2023-05-24T02:36:19.186Z,66.67
2023-05-24T02:38:46.953Z,65.34
2023-05-24T02:41:18.263Z,65.52
2023-05-24T02:43:46.140Z,65.88
2023-05-24T02:46:14.301Z,65.69
2023-05-24T02:48:42.286Z,67.45
2023-05-24T02:51:11.389Z,66.06
2023-05-24T02:53:39.075Z,65.25
2023-05-24T02:56:07.526Z,66.26
2023-05-24T02:58:40.465Z,65.69
2023-05-24T03:01:08.795Z,65.85
2023-05-24T03:03:36.756Z,66.15
2023-05-24T03:06:04.679Z,66.29
2023-05-24T03:08:33.871Z,65.44
2023-05-24T03:11:01.641Z,65.77
2023-05-24T03:13:29.614Z,66.64
2023-05-24T03:15:57.379Z,66.50
2023-05-24T03:18:25.168Z,66.21
2023-05-24T03:20:53.042Z,65.61
2023-05-24T03:23:20.797Z,66.36
2023-05-24T03:25:49.983Z,66.36
2023-05-24T03:28:17.784Z,66.58
2023-05-24T03:30:45.683Z,66.44
2023-05-24T03:33:13.402Z,66.83
2023-05-24T03:35:41.223Z,66.99
2023-05-24T03:38:08.988Z,67.91
2023-05-24T03:40:37.041Z,67.65
2023-05-24T03:43:06.275Z,67.79
2023-05-24T03:45:39.030Z,67.51
2023-05-24T03:48:07.925Z,67.63
2023-05-24T03:50:35.713Z,68.09
2023-05-24T03:53:03.614Z,67.92
2023-05-24T03:55:31.427Z,67.53
2023-05-24T03:57:59.192Z,68.21
2023-05-24T04:00:28.573Z,68.42
2023-05-24T04:02:56.961Z,67.38
2023-05-24T04:05:27.031Z,67.09
2023-05-24T04:07:55.012Z,67.73
2023-05-24T04:10:22.871Z,67.08
2023-05-24T04:12:50.636Z,67.56
2023-05-24T04:15:18.504Z,67.66
2023-05-24T04:17:48.690Z,66.84
2023-05-24T04:20:16.634Z,66.96
2023-05-24T04:22:44.403Z,66.82
2023-05-24T04:25:12.165Z,67.38
2023-05-24T04:27:40.054Z,67.62
2023-05-24T04:30:09.317Z,67.36
2023-05-24T04:32:37.156Z,67.15
2023-05-24T04:35:07.205Z,67.60
2023-05-24T04:37:34.917Z,66.99
2023-05-24T04:40:04.219Z,66.74
2023-05-24T04:42:32.475Z,66.85
2023-05-24T04:45:00.551Z,67.60
2023-05-24T04:47:28.473Z,67.07
2023-05-24T04:49:56.331Z,66.90
2023-05-24T04:52:25.786Z,67.01
2023-05-24T04:54:55.197Z,67.58
2023-05-24T04:57:22.872Z,67.18
2023-05-24T04:59:50.741Z,66.89
2023-05-24T05:02:18.628Z,67.20
2023-05-24T05:04:46.478Z,66.94
2023-05-24T05:07:14.158Z,67.22
2023-05-24T05:09:43.243Z,65.91
2023-05-24T05:12:12.720Z,65.26
2023-05-24T05:14:40.576Z,65.80
2023-05-24T05:17:08.506Z,66.57
2023-05-24T05:19:36.680Z,65.75
2023-05-24T05:22:04.452Z,64.70
2023-05-24T05:24:32.336Z,63.68
2023-05-24T05:27:01.636Z,62.93
2023-05-24T05:29:29.322Z,61.54
2023-05-24T05:31:57.088Z,61.65
2023-05-24T05:34:24.849Z,61.41
2023-05-24T05:36:52.591Z,61.88
2023-05-24T05:39:20.295Z,63.00
2023-05-24T05:41:48.038Z,61.54
2023-05-24T05:44:17.242Z,62.60
2023-05-24T05:46:46.371Z,62.36
2023-05-24T05:49:15.222Z,61.44
2023-05-24T05:51:43.207Z,61.39
2023-05-24T05:54:15.427Z,61.79
2023-05-24T05:56:47.939Z,61.57
2023-05-24T05:59:17.307Z,61.28
2023-05-24T06:01:47.047Z,60.19
2023-05-24T06:04:14.863Z,59.42
2023-05-24T06:06:44.156Z,58.13
2023-05-24T06:09:12.231Z,57.85
2023-05-24T06:11:44.740Z,60.02
2023-05-24T06:14:13.404Z,58.89
2023-05-24T06:16:43.690Z,58.86
2023-05-24T06:19:11.583Z,59.58
2023-05-24T06:21:41.026Z,57.44
2023-05-24T06:24:09.741Z,57.73
2023-05-24T06:26:38.089Z,57.55
2023-05-24T06:29:06.061Z,56.79
2023-05-24T06:31:34.763Z,55.71
2023-05-24T06:34:06.583Z,56.02
2023-05-24T06:36:35.925Z,55.37
2023-05-24T06:39:03.901Z,55.31
2023-05-24T06:41:31.657Z,53.99
2023-05-24T06:43:59.872Z,53.08
2023-05-24T06:46:27.734Z,53.99
2023-05-24T06:48:55.569Z,52.99
2023-05-24T06:51:24.968Z,52.45
2023-05-24T06:53:53.000Z,51.62
2023-05-24T06:56:21.494Z,51.42
2023-05-24T06:58:49.230Z,51.80
2023-05-24T07:01:17.134Z,50.88
2023-05-24T07:03:45.080Z,48.26
2023-05-24T07:06:14.290Z,49.01
2023-05-24T07:08:44.193Z,50.35
2023-05-24T07:11:12.109Z,51.14
2023-05-24T07:13:39.968Z,49.97
2023-05-24T07:16:07.916Z,49.12
2023-05-24T07:18:35.982Z,48.98
2023-05-24T07:21:04.063Z,51.77
2023-05-24T07:23:32.366Z,49.72
2023-05-24T07:26:01.683Z,49.00
2023-05-24T07:28:29.526Z,49.61
2023-05-24T07:30:57.393Z,50.33
2023-05-24T07:33:25.188Z,49.90
2023-05-24T07:35:53.896Z,50.64
2023-05-24T07:38:22.469Z,49.32
2023-05-24T07:40:50.253Z,47.95
2023-05-24T07:43:19.832Z,47.72
2023-05-24T07:45:47.623Z,48.49
2023-05-24T07:48:15.949Z,48.45
2023-05-24T07:50:48.537Z,48.83
2023-05-24T07:53:19.022Z,47.78
2023-05-24T07:55:46.997Z,49.13
2023-05-24T07:58:14.832Z,48.39
2023-05-24T08:00:44.058Z,47.67
2023-05-24T08:03:14.441Z,47.41
2023-05-24T08:05:43.134Z,45.24
2023-05-24T08:08:11.147Z,45.52
2023-05-24T08:10:39.718Z,46.13
2023-05-24T08:13:07.697Z,45.64
2023-05-24T08:15:35.687Z,46.92
2023-05-24T08:18:05.432Z,45.62
2023-05-24T08:20:36.285Z,43.56
2023-05-24T08:23:04.304Z,43.98
2023-05-24T08:25:32.082Z,42.87
2023-05-24T08:27:59.910Z,45.16
2023-05-24T08:30:28.049Z,43.37
2023-05-24T08:32:55.956Z,42.73
2023-05-24T08:35:25.237Z,42.87
2023-05-24T08:37:52.923Z,42.47
2023-05-24T08:40:20.880Z,39.72
2023-05-24T08:42:50.650Z,40.68
2023-05-24T08:45:19.921Z,40.44
2023-05-24T08:47:48.844Z,37.42
2023-05-24T08:50:16.834Z,39.04
2023-05-24T08:52:47.390Z,40.60
2023-05-24T08:55:16.609Z,41.08
2023-05-24T08:57:46.608Z,39.32
2023-05-24T09:00:15.795Z,39.36
2023-05-24T09:02:46.357Z,38.32
2023-05-24T09:05:17.324Z,38.97
2023-05-24T09:07:47.424Z,39.09
2023-05-24T09:10:16.298Z,36.84
2023-05-24T09:12:46.830Z,38.22
2023-05-24T09:15:14.792Z,38.29
2023-05-24T09:17:43.027Z,38.71
2023-05-24T09:20:12.411Z,39.41
2023-05-24T09:22:42.974Z,40.00
2023-05-24T09:25:15.095Z,38.81
2023-05-24T09:27:45.551Z,38.38
2023-05-24T09:30:16.477Z,37.36
2023-05-24T09:32:56.237Z,38.07
2023-05-24T09:35:24.288Z,36.71
2023-05-24T09:37:55.350Z,36.83
2023-05-24T09:40:25.745Z,36.45
2023-05-24T09:43:04.421Z,35.56
2023-05-24T09:45:34.342Z,37.85
2023-05-24T09:48:05.166Z,39.15
2023-05-24T09:50:33.010Z,38.64
2023-05-24T09:53:01.065Z,39.47
2023-05-24T09:55:31.070Z,39.10
2023-05-24T09:58:04.626Z,39.35
2023-05-24T10:00:36.810Z,40.30
2023-05-24T10:03:07.191Z,40.55
2023-05-24T10:05:36.311Z,40.88
2023-05-24T10:08:06.428Z,39.11
2023-05-24T10:10:35.938Z,41.24
2023-05-24T10:13:03.936Z,43.62
2023-05-24T10:15:31.813Z,43.13
2023-05-24T10:18:00.768Z,39.84
2023-05-24T10:20:28.767Z,41.29
2023-05-24T10:23:02.073Z,40.05
2023-05-24T10:25:30.968Z,38.59
2023-05-24T10:28:04.339Z,38.82
2023-05-24T10:30:37.733Z,39.98
2023-05-24T10:33:09.525Z,39.74
2023-05-24T10:35:38.592Z,38.18
2023-05-24T10:38:07.819Z,37.73
2023-05-24T10:40:37.062Z,36.54
2023-05-24T10:43:07.565Z,36.92
2023-05-24T10:45:38.391Z,37.44
2023-05-24T10:48:11.303Z,38.07
2023-05-24T10:50:39.217Z,38.05
2023-05-24T10:53:14.081Z,36.50
2023-05-24T10:55:58.544Z,38.46
2023-05-24T10:58:47.215Z,37.83
2023-05-24T11:01:15.604Z,38.24
2023-05-24T11:03:43.425Z,37.60
2023-05-24T11:06:11.404Z,38.29
2023-05-24T11:08:43.555Z,37.93
2023-05-24T11:13:49.242Z,38.91
2023-05-24T11:16:35.215Z,38.19
2023-05-24T11:19:13.280Z,37.23
2023-05-24T11:21:42.168Z,37.84
2023-05-24T11:24:10.610Z,37.71
2023-05-24T11:26:40.640Z,37.64
2023-05-24T11:29:10.414Z,35.18
2023-05-24T11:31:43.147Z,36.57
2023-05-24T11:34:12.507Z,39.02
2023-05-24T11:36:41.265Z,37.18
2023-05-24T11:39:09.648Z,38.36
2023-05-24T11:41:39.151Z,36.87
2023-05-24T11:44:10.876Z,37.20
2023-05-24T11:46:40.175Z,35.98
2023-05-24T11:49:08.282Z,34.51
2023-05-24T11:51:37.527Z,36.21
2023-05-24T11:54:05.459Z,37.15
2023-05-24T11:56:34.265Z,35.42
2023-05-24T11:59:15.522Z,36.10
2023-05-24T12:01:44.579Z,35.05
2023-05-24T12:04:13.228Z,36.00
2023-05-24T12:06:44.362Z,34.85
2023-05-24T12:09:14.371Z,34.25
2023-05-24T12:11:43.472Z,33.67
2023-05-24T12:14:17.897Z,34.41
2023-05-24T12:16:46.907Z,32.71
2023-05-24T12:19:31.680Z,33.03
2023-05-24T12:22:02.196Z,34.06
2023-05-24T12:24:30.558Z,32.82
2023-05-24T12:27:03.158Z,33.33
2023-05-24T12:29:36.808Z,35.49
2023-05-24T12:32:05.841Z,34.70
2023-05-24T12:34:33.878Z,34.36
2023-05-24T12:37:02.108Z,32.87
2023-05-24T12:39:34.192Z,32.83
2023-05-24T12:42:03.188Z,33.36
2023-05-24T12:44:32.929Z,34.05
2023-05-24T12:47:04.370Z,34.52
2023-05-24T12:49:32.718Z,34.67
2023-05-24T12:52:01.777Z,34.84
2023-05-24T12:54:30.435Z,33.65
2023-05-24T12:57:00.004Z,32.14
2023-05-24T12:59:29.570Z,33.89
2023-05-24T13:01:57.762Z,32.97
2023-05-24T13:04:27.710Z,31.95
2023-05-24T13:06:55.763Z,32.48
2023-05-24T13:09:25.842Z,31.72
2023-05-24T13:11:54.171Z,32.70
2023-05-24T13:14:22.697Z,33.33
2023-05-24T13:16:50.839Z,32.09
2023-05-24T13:19:18.844Z,32.04
2023-05-24T13:21:48.905Z,31.58
2023-05-24T13:24:17.541Z,33.30
2023-05-24T13:26:46.198Z,33.19
2023-05-24T13:31:45.205Z,34.17
2023-05-24T13:34:13.401Z,32.38
2023-05-24T13:36:42.054Z,33.61
2023-05-24T13:41:42.559Z,31.76
2023-05-24T13:44:10.889Z,32.29
2023-05-24T13:46:39.189Z,32.28
2023-05-24T13:49:07.850Z,32.39
2023-05-24T13:51:36.318Z,32.09
2023-05-24T13:54:04.981Z,32.52
2023-05-24T13:56:34.400Z,32.15
2023-05-24T13:59:03.621Z,31.95
2023-05-24T14:01:32.561Z,30.69
2023-05-24T14:04:02.433Z,31.75
2023-05-24T14:06:30.883Z,32.19
2023-05-24T14:08:59.259Z,30.92
2023-05-24T14:11:27.701Z,31.93
2023-05-24T14:16:27.704Z,28.95
2023-05-24T14:18:55.662Z,29.88
2023-05-24T14:21:23.516Z,29.47
2023-05-24T14:23:51.561Z,32.51
2023-05-24T14:26:20.110Z,32.24
2023-05-24T14:28:48.115Z,32.10
2023-05-24T14:31:17.477Z,32.32
2023-05-24T14:33:45.226Z,33.08
2023-05-24T14:36:12.985Z,33.28
2023-05-24T14:38:41.050Z,32.56
2023-05-24T14:41:10.044Z,32.74
2023-05-24T14:43:37.923Z,33.84
2023-05-24T14:46:06.083Z,33.80
2023-05-24T14:48:35.413Z,33.07
2023-05-24T14:51:03.413Z,34.45
2023-05-24T14:53:31.229Z,35.32
2023-05-24T14:55:59.240Z,36.22
2023-05-24T14:58:27.505Z,37.04
2023-05-24T15:00:55.396Z,36.35
2023-05-24T15:03:23.294Z,35.69
2023-05-24T15:05:53.242Z,36.36
2023-05-24T15:08:21.279Z,37.53
2023-05-24T15:10:49.360Z,37.92
2023-05-24T15:13:17.893Z,37.52
2023-05-24T15:15:45.881Z,37.63
2023-05-24T15:18:13.831Z,36.50
2023-05-24T15:20:42.021Z,36.26
2023-05-24T15:23:11.772Z,36.29
2023-05-24T15:25:39.634Z,36.23
2023-05-24T15:28:07.446Z,38.34
2023-05-24T15:30:35.196Z,39.05
2023-05-24T15:33:02.962Z,40.93
2023-05-24T15:35:31.316Z,40.75
2023-05-24T15:37:59.510Z,39.93
2023-05-24T15:40:28.796Z,40.89
2023-05-24T15:42:56.519Z,41.89
2023-05-24T15:45:24.189Z,41.85
2023-05-24T15:47:52.052Z,41.60
2023-05-24T15:50:28.463Z,42.02
2023-05-24T15:53:03.999Z,41.93
2023-05-24T15:55:33.914Z,43.42
2023-05-24T15:58:02.198Z,42.80
2023-05-24T16:00:30.467Z,42.29
2023-05-24T16:02:59.285Z,42.76
2023-05-24T16:05:28.359Z,42.37
2023-05-24T16:07:56.031Z,42.23
2023-05-24T16:10:23.869Z,42.66
2023-05-24T16:12:53.850Z,41.73
2023-05-24T16:15:21.830Z,41.69
2023-05-24T16:17:51.451Z,42.07
2023-05-24T16:20:19.329Z,42.85
2023-05-24T16:22:50.181Z,42.53
2023-05-24T16:25:17.923Z,43.04
2023-05-24T16:27:45.691Z,43.89
2023-05-24T16:30:15.276Z,42.95
2023-05-24T16:32:45.205Z,42.38
2023-05-24T16:35:13.325Z,42.93
2023-05-24T16:37:41.448Z,43.57
2023-05-24T16:40:09.901Z,43.67
2023-05-24T16:42:37.698Z,44.59
2023-05-24T16:45:06.401Z,44.19
2023-05-24T16:47:35.969Z,44.84
2023-05-24T16:50:04.153Z,44.52
2023-05-24T16:52:31.918Z,44.94
2023-05-24T16:55:00.479Z,44.35
2023-05-24T16:57:28.464Z,44.23
2023-05-24T16:59:58.248Z,44.44
2023-05-24T17:02:26.713Z,43.64
2023-05-24T17:04:56.450Z,42.79
2023-05-24T17:07:24.810Z,42.89
2023-05-24T17:09:52.999Z,42.73
2023-05-24T17:12:22.104Z,43.41
2023-05-24T17:14:50.066Z,42.29
2023-05-24T17:17:17.991Z,44.15
2023-05-24T17:19:45.878Z,43.50
2023-05-24T17:22:15.235Z,44.26
2023-05-24T17:24:43.198Z,44.43
2023-05-24T17:27:11.124Z,43.39
2023-05-24T17:29:44.637Z,43.52
2023-05-24T17:32:12.519Z,43.39
2023-05-24T17:34:40.431Z,44.55
2023-05-24T17:37:08.297Z,43.87
2023-05-24T17:39:40.055Z,43.37
2023-05-24T17:42:07.981Z,43.84
2023-05-24T17:44:36.123Z,44.30
2023-05-24T17:47:04.434Z,44.05
2023-05-24T17:49:33.063Z,44.04
2023-05-24T17:52:01.463Z,44.23
2023-05-24T17:54:29.361Z,44.08
2023-05-24T17:56:58.672Z,44.64
2023-05-24T17:59:26.670Z,44.60
2023-05-24T18:01:54.496Z,44.30
2023-05-24T18:04:22.640Z,44.05
2023-05-24T18:06:50.451Z,44.30
2023-05-24T18:09:18.691Z,44.82
2023-05-24T18:11:46.584Z,45.23
2023-05-24T18:14:16.062Z,44.84
2023-05-24T18:16:44.131Z,45.08
2023-05-24T18:19:12.120Z,44.84
2023-05-24T18:21:40.212Z,44.70
2023-05-24T18:24:08.840Z,44.99
2023-05-24T18:26:37.312Z,44.78
2023-05-24T18:29:06.275Z,44.54
2023-05-24T18:31:36.523Z,45.43
2023-05-24T18:34:06.413Z,44.90
2023-05-24T18:36:34.464Z,45.22
2023-05-24T18:39:03.205Z,45.32
2023-05-24T18:41:31.232Z,45.30
2023-05-24T18:43:59.116Z,45.26
2023-05-24T18:46:28.848Z,45.60
2023-05-24T18:49:00.297Z,46.13
2023-05-24T18:51:28.177Z,45.83
2023-05-24T18:53:56.846Z,45.97
2023-05-24T18:56:24.790Z,46.12
2023-05-24T18:58:53.902Z,46.84
2023-05-24T19:01:21.917Z,46.18
2023-05-24T19:03:50.428Z,47.50
2023-05-24T19:06:19.679Z,47.39
2023-05-24T19:08:49.947Z,46.79
2023-05-24T19:11:17.777Z,46.78
2023-05-24T19:13:45.835Z,46.46
2023-05-24T19:16:17.655Z,46.62
2023-05-24T19:18:46.234Z,47.87
2023-05-24T19:21:14.093Z,46.58
2023-05-24T19:23:43.714Z,46.75
2023-05-24T19:26:11.894Z,47.87
2023-05-24T19:28:41.892Z,47.49
2023-05-24T19:31:10.092Z,47.09
2023-05-24T19:33:48.412Z,47.92
2023-05-24T19:36:21.208Z,47.13
2023-05-24T19:38:50.752Z,47.38
2023-05-24T19:41:18.889Z,47.31
2023-05-24T19:43:46.978Z,48.42
2023-05-24T19:46:14.996Z,47.51
2023-05-24T19:48:44.103Z,47.94
2023-05-24T19:51:13.259Z,48.27
2023-05-24T19:53:41.224Z,48.21
2023-05-24T19:56:10.841Z,48.01
2023-05-24T19:58:38.961Z,47.58
2023-05-24T20:01:07.091Z,48.06
2023-05-24T20:03:35.345Z,47.57
2023-05-24T20:06:03.505Z,46.77
2023-05-24T20:08:31.358Z,46.52
2023-05-24T20:10:59.282Z,46.68
2023-05-24T20:13:28.776Z,46.98
2023-05-24T20:15:56.763Z,47.72
2023-05-24T20:18:24.731Z,46.99
2023-05-24T20:20:52.941Z,47.86
2023-05-24T20:23:20.833Z,47.54
2023-05-24T20:25:48.683Z,47.48
2023-05-24T20:28:29.424Z,48.27
2023-05-24T20:30:59.773Z,47.97
2023-05-24T20:33:27.747Z,47.83
2023-05-24T20:35:55.666Z,48.03
2023-05-24T20:38:24.425Z,48.41
2023-05-24T20:40:52.406Z,47.92
2023-05-24T20:43:20.186Z,47.85
2023-05-24T20:45:48.102Z,48.43
2023-05-24T20:48:17.594Z,47.81
2023-05-24T20:50:45.462Z,48.27
2023-05-24T20:53:13.329Z,48.84
2023-05-24T20:55:41.686Z,49.49
2023-05-24T20:58:09.942Z,48.91
2023-05-24T21:00:39.695Z,49.13
2023-05-24T21:03:09.562Z,49.61
2023-05-24T21:05:40.398Z,49.89
2023-05-24T21:08:09.207Z,49.67
2023-05-24T21:10:38.175Z,50.96
2023-05-24T21:13:06.177Z,51.17
2023-05-24T21:15:34.450Z,50.89
2023-05-24T21:18:02.375Z,50.68
2023-05-24T21:20:30.264Z,51.48
2023-05-24T21:22:59.482Z,52.04
2023-05-24T21:25:27.660Z,51.85
2023-05-24T21:27:55.428Z,51.69
2023-05-24T21:30:23.519Z,51.74
2023-05-24T21:32:51.262Z,52.13
2023-05-24T21:35:19.048Z,51.95
2023-05-24T21:37:46.833Z,51.83
2023-05-24T21:40:16.062Z,52.39
2023-05-24T21:42:44.521Z,52.71
2023-05-24T21:45:12.996Z,54.15
2023-05-24T21:47:40.835Z,53.10
2023-05-24T21:50:09.497Z,53.52
2023-05-24T21:52:37.224Z,53.44
2023-05-24T21:55:05.955Z,53.22
2023-05-24T21:57:35.086Z,53.84
2023-05-24T22:00:04.005Z,54.01
2023-05-24T22:02:32.081Z,53.40
2023-05-24T22:04:59.933Z,53.52
2023-05-24T22:07:27.704Z,53.64
2023-05-24T22:09:56.218Z,54.78
2023-05-24T22:12:23.976Z,54.04
2023-05-24T22:14:53.102Z,54.89
2023-05-24T22:17:21.868Z,54.51
2023-05-24T22:19:49.881Z,54.75
2023-05-24T22:22:19.524Z,54.26
2023-05-24T22:24:48.146Z,54.83
2023-05-24T22:27:17.147Z,56.12
2023-05-24T22:29:44.965Z,55.51
2023-05-24T22:32:14.509Z,56.10
2023-05-24T22:34:42.685Z,55.79
2023-05-24T22:37:10.792Z,56.79
2023-05-24T22:39:39.009Z,56.15
2023-05-24T22:42:06.855Z,56.72
2023-05-24T22:44:34.730Z,56.89
2023-05-24T22:47:03.312Z,57.62
2023-05-24T22:49:33.958Z,57.57
2023-05-24T22:52:02.025Z,57.94
2023-05-24T22:54:29.863Z,57.42
2023-05-24T22:56:57.751Z,58.19
2023-05-24T22:59:25.733Z,58.35
2023-05-24T23:01:53.978Z,58.57
2023-05-24T23:04:22.030Z,59.22
2023-05-24T23:06:53.568Z,58.20
2023-05-24T23:09:34.372Z,57.53
2023-05-24T23:12:02.416Z,57.57
2023-05-24T23:14:31.468Z,58.09
2023-05-24T23:17:02.513Z,57.71
2023-05-24T23:19:31.104Z,58.11
2023-05-24T23:22:00.491Z,58.66
2023-05-24T23:24:28.390Z,58.64
2023-05-24T23:26:57.021Z,60.07
2023-05-24T23:29:25.018Z,60.70
2023-05-24T23:31:52.861Z,59.54
2023-05-24T23:34:20.899Z,59.29
2023-05-24T23:36:48.597Z,59.37
2023-05-24T23:39:17.993Z,60.67
2023-05-24T23:41:46.065Z,61.54
2023-05-24T23:44:13.859Z,61.52
2023-05-24T23:46:42.396Z,60.75
2023-05-24T23:49:10.194Z,59.99
2023-05-24T23:51:37.923Z,60.45
2023-05-24T23:54:05.982Z,59.86
2023-05-24T23:56:35.139Z,59.74
2023-05-24T23:59:03.007Z,60.98
